createdAt,value
2022-08-11T00:02:27.814Z,23.60
2022-08-11T00:04:56.998Z,23.60
2022-08-11T00:07:26.073Z,23.60
2022-08-11T00:09:54.256Z,23.60
2022-08-11T00:12:22.401Z,23.50
2022-08-11T00:14:57.257Z,23.50
2022-08-11T00:17:30.070Z,23.50
2022-08-11T00:20:12.555Z,23.50
2022-08-11T00:22:45.989Z,23.50
2022-08-11T00:25:15.378Z,23.50
2022-08-11T00:27:43.547Z,23.50
2022-08-11T00:30:13.379Z,23.60
2022-08-11T00:32:43.999Z,23.50
2022-08-11T00:35:53.931Z,23.50
2022-08-11T00:38:03.263Z,23.50
2022-08-11T00:40:38.163Z,23.50
2022-08-11T00:43:20.803Z,23.50
2022-08-11T00:46:03.584Z,23.50
2022-08-11T00:48:37.461Z,23.50
2022-08-11T00:51:10.937Z,23.50
2022-08-11T00:53:46.734Z,23.50
2022-08-11T00:56:41.730Z,23.50
2022-08-11T00:59:49.196Z,23.50
2022-08-11T01:02:18.886Z,23.50
2022-08-11T01:05:27.210Z,23.50
2022-08-11T01:08:28.789Z,23.50
2022-08-11T01:11:35.334Z,23.50
2022-08-11T01:14:41.775Z,23.50
2022-08-11T01:18:01.721Z,23.50
2022-08-11T01:20:57.419Z,23.50
2022-08-11T01:24:11.017Z,23.50
2022-08-11T01:27:19.388Z,23.50
2022-08-11T01:30:16.152Z,23.50
2022-08-11T01:33:26.936Z,23.50
2022-08-11T01:36:27.426Z,23.50
2022-08-11T01:39:19.807Z,23.50
2022-08-11T01:42:20.039Z,23.50
2022-08-11T01:45:04.916Z,23.50
2022-08-11T01:47:54.333Z,23.50
2022-08-11T01:50:29.029Z,23.50
2022-08-11T01:53:05.835Z,23.40
2022-08-11T01:55:38.298Z,23.50
2022-08-11T01:58:09.792Z,23.50
2022-08-11T02:00:51.450Z,23.50
2022-08-11T02:03:21.717Z,23.50
2022-08-11T02:06:00.365Z,23.50
2022-08-11T02:08:45.513Z,23.40
2022-08-11T02:11:35.113Z,23.40
2022-08-11T02:14:17.059Z,23.50
2022-08-11T02:16:54.314Z,23.50
2022-08-11T02:19:45.301Z,23.40
2022-08-11T02:22:35.750Z,23.40
2022-08-11T02:25:07.332Z,23.40
2022-08-11T02:27:40.989Z,23.50
2022-08-11T02:30:11.354Z,23.40
2022-08-11T02:33:00.469Z,23.40
2022-08-11T02:35:36.611Z,23.40
2022-08-11T02:38:12.822Z,23.40
2022-08-11T02:40:49.478Z,23.40
2022-08-11T02:43:50.999Z,23.40
2022-08-11T02:46:24.609Z,23.40
2022-08-11T02:49:15.750Z,23.40
2022-08-11T02:51:53.752Z,23.40
2022-08-11T02:54:24.764Z,23.40
2022-08-11T02:56:58.336Z,23.40
2022-08-11T02:59:52.450Z,23.40
2022-08-11T03:02:50.210Z,23.30
2022-08-11T03:05:32.054Z,23.40
2022-08-11T03:08:18.771Z,23.30
2022-08-11T03:11:12.683Z,23.40
2022-08-11T03:14:01.941Z,23.40
2022-08-11T03:16:48.510Z,23.40
2022-08-11T03:19:23.264Z,23.40
2022-08-11T03:22:01.394Z,23.40
2022-08-11T03:24:35.311Z,23.40
2022-08-11T03:27:11.124Z,23.40
2022-08-11T03:29:43.911Z,23.40
2022-08-11T03:32:20.636Z,23.40
2022-08-11T03:34:47.818Z,23.30
2022-08-11T03:37:41.925Z,23.30
2022-08-11T03:40:37.577Z,23.40
2022-08-11T03:43:11.231Z,23.40
2022-08-11T03:45:51.083Z,23.40
2022-08-11T03:48:21.135Z,23.40
2022-08-11T03:50:57.080Z,23.30
2022-08-11T03:53:36.946Z,23.30
2022-08-11T03:56:43.225Z,23.30
2022-08-11T03:59:46.812Z,23.30
2022-08-11T04:02:41.970Z,23.30
2022-08-11T04:05:38.458Z,23.30
2022-08-11T04:08:48.974Z,23.30
2022-08-11T04:11:32.043Z,23.30
2022-08-11T04:14:43.866Z,23.30
2022-08-11T04:17:52.545Z,23.30
2022-08-11T04:20:31.126Z,23.30
2022-08-11T04:24:35.916Z,23.30
2022-08-11T04:26:19.130Z,23.30
2022-08-11T04:29:02.668Z,23.30
2022-08-11T04:31:44.422Z,23.30
2022-08-11T04:34:52.716Z,23.30
2022-08-11T04:37:51.348Z,23.20
2022-08-11T04:40:55.571Z,23.30
2022-08-11T04:44:12.464Z,23.30
2022-08-11T04:47:09.717Z,23.30
2022-08-11T04:50:23.134Z,23.30
2022-08-11T04:53:33.009Z,23.30
2022-08-11T04:56:25.080Z,23.30
2022-08-11T04:59:54.202Z,23.20
2022-08-11T05:03:05.876Z,23.30
2022-08-11T05:05:55.376Z,23.30
2022-08-11T05:08:48.232Z,23.30
2022-08-11T05:11:41.329Z,23.30
2022-08-11T05:14:45.873Z,23.30
2022-08-11T05:17:33.102Z,23.30
2022-08-11T05:20:18.733Z,23.20
2022-08-11T05:23:07.157Z,23.20
2022-08-11T05:26:45.330Z,23.20
2022-08-11T05:29:08.295Z,23.30
2022-08-11T05:32:17.460Z,23.20
2022-08-11T05:34:53.071Z,23.20
2022-08-11T05:37:27.278Z,23.20
2022-08-11T05:40:16.311Z,23.20
2022-08-11T05:43:07.615Z,23.20
2022-08-11T05:46:02.383Z,23.20
2022-08-11T05:48:52.474Z,23.30
2022-08-11T05:51:37.757Z,23.30
2022-08-11T05:54:28.639Z,23.30
2022-08-11T05:56:59.822Z,23.30
2022-08-11T05:59:29.371Z,23.30
2022-08-11T06:02:01.952Z,23.30
2022-08-11T06:04:30.164Z,23.30
2022-08-11T06:06:58.957Z,23.30
2022-08-11T06:09:29.113Z,23.30
2022-08-11T06:12:00.706Z,23.30
2022-08-11T06:14:30.272Z,23.30
2022-08-11T06:17:00.275Z,23.30
2022-08-11T06:19:36.009Z,23.30
2022-08-11T06:22:05.816Z,23.30
2022-08-11T06:27:20.693Z,23.30
2022-08-11T06:29:55.177Z,23.30
2022-08-11T06:32:25.780Z,23.30
2022-08-11T06:35:11.184Z,23.30
2022-08-11T06:38:03.889Z,23.30
2022-08-11T06:40:41.796Z,23.30
2022-08-11T06:43:16.449Z,23.30
2022-08-11T06:45:52.357Z,23.30
2022-08-11T06:48:22.399Z,23.30
2022-08-11T06:51:10.418Z,23.30
2022-08-11T06:53:40.245Z,23.30
2022-08-11T06:56:26.159Z,23.30
2022-08-11T06:59:11.692Z,23.30
2022-08-11T07:01:47.711Z,23.30
2022-08-11T07:04:22.572Z,23.30
2022-08-11T07:07:11.088Z,23.30
2022-08-11T07:10:09.549Z,23.30
2022-08-11T07:12:57.920Z,23.30
2022-08-11T07:16:10.966Z,23.30
2022-08-11T07:18:52.791Z,23.30
2022-08-11T07:22:00.619Z,23.30
2022-08-11T07:25:02.753Z,23.40
2022-08-11T07:27:51.350Z,23.30
2022-08-11T07:30:19.495Z,23.40
2022-08-11T07:32:51.259Z,23.40
2022-08-11T07:35:23.720Z,23.40
2022-08-11T07:38:01.394Z,23.30
2022-08-11T07:40:30.685Z,23.40
2022-08-11T07:42:58.875Z,23.40
2022-08-11T07:45:44.301Z,23.40
2022-08-11T07:48:29.892Z,23.40
2022-08-11T07:51:16.986Z,23.40
2022-08-11T07:53:58.261Z,23.40
2022-08-11T07:56:42.971Z,23.40
2022-08-11T08:00:04.368Z,23.50
2022-08-11T08:02:45.851Z,23.40
2022-08-11T08:05:31.219Z,23.50
2022-08-11T08:08:18.262Z,23.50
2022-08-11T08:11:03.776Z,23.50
2022-08-11T08:13:50.637Z,23.50
2022-08-11T08:16:36.106Z,23.50
2022-08-11T08:19:04.270Z,23.50
2022-08-11T08:21:32.384Z,23.50
2022-08-11T08:24:01.848Z,23.50
2022-08-11T08:26:51.586Z,23.50
2022-08-11T08:29:37.565Z,23.50
2022-08-11T08:32:05.779Z,23.50
2022-08-11T08:34:34.026Z,23.50
2022-08-11T08:37:02.870Z,23.50
2022-08-11T08:39:46.258Z,23.50
2022-08-11T08:42:24.609Z,23.50
2022-08-11T08:44:55.438Z,23.50
2022-08-11T08:47:42.399Z,23.50
2022-08-11T08:50:16.598Z,23.50
2022-08-11T08:52:49.099Z,23.50
2022-08-11T08:55:19.893Z,23.50
2022-08-11T08:57:49.498Z,23.50
2022-08-11T09:00:22.496Z,23.50
2022-08-11T09:02:51.730Z,23.50
2022-08-11T09:05:19.988Z,23.50
2022-08-11T09:07:48.574Z,23.50
2022-08-11T09:10:21.389Z,23.60
2022-08-11T09:12:50.162Z,23.60
2022-08-11T09:15:20.232Z,23.60
2022-08-11T09:17:48.868Z,23.60
2022-08-11T09:20:19.549Z,23.60
2022-08-11T09:26:14.834Z,23.60
2022-08-11T09:28:43.970Z,23.60
2022-08-11T09:31:13.463Z,23.60
2022-08-11T09:33:42.707Z,23.60
2022-08-11T09:36:40.427Z,23.60
2022-08-11T09:39:26.279Z,23.60
2022-08-11T09:42:02.930Z,23.70
2022-08-11T09:44:49.716Z,23.70
2022-08-11T09:47:19.718Z,23.60
2022-08-11T09:49:48.975Z,23.70
2022-08-11T09:52:18.010Z,23.70
2022-08-11T09:54:48.036Z,23.70
2022-08-11T09:57:33.535Z,23.70
2022-08-11T10:00:12.672Z,23.70
2022-08-11T10:02:43.778Z,23.70
2022-08-11T10:05:29.310Z,23.70
2022-08-11T10:07:57.493Z,23.70
2022-08-11T10:10:25.580Z,23.70
2022-08-11T10:12:57.850Z,23.70
2022-08-11T10:15:34.077Z,23.70
2022-08-11T10:18:22.894Z,23.70
2022-08-11T10:20:52.455Z,23.70
2022-08-11T10:24:01.487Z,23.70
2022-08-11T10:26:44.738Z,23.70
2022-08-11T10:29:30.223Z,23.70
2022-08-11T10:32:40.693Z,23.70
2022-08-11T10:35:26.068Z,23.70
2022-08-11T10:38:16.083Z,23.70
2022-08-11T10:40:42.590Z,23.70
2022-08-11T10:43:14.287Z,23.70
2022-08-11T10:46:03.925Z,23.70
2022-08-11T10:48:35.948Z,23.70
2022-08-11T10:51:24.546Z,23.70
2022-08-11T10:54:23.829Z,23.70
2022-08-11T10:57:09.867Z,23.70
2022-08-11T10:59:37.987Z,23.70
2022-08-11T11:02:07.468Z,23.70
2022-08-11T11:04:48.883Z,23.70
2022-08-11T11:07:20.676Z,23.80
2022-08-11T11:09:50.516Z,23.80
2022-08-11T11:12:39.955Z,23.70
2022-08-11T11:15:26.279Z,23.80
2022-08-11T11:17:57.877Z,23.70
2022-08-11T11:20:34.618Z,23.80
2022-08-11T11:23:08.739Z,23.80
2022-08-11T11:25:41.855Z,23.80
2022-08-11T11:28:34.609Z,23.80
2022-08-11T11:31:11.504Z,23.80
2022-08-11T11:34:12.010Z,23.80
2022-08-11T11:36:45.489Z,23.80
2022-08-11T11:39:13.678Z,23.80
2022-08-11T11:41:41.911Z,23.80
2022-08-11T11:44:10.429Z,23.80
2022-08-11T11:46:39.128Z,23.90
2022-08-11T11:49:15.843Z,23.90
2022-08-11T11:51:46.040Z,23.90
2022-08-11T11:54:18.287Z,23.90
2022-08-11T11:56:46.510Z,23.90
2022-08-11T11:59:31.944Z,23.90
2022-08-11T12:02:00.050Z,23.90
2022-08-11T12:04:29.626Z,23.90
2022-08-11T12:07:17.850Z,23.90
2022-08-11T12:09:46.118Z,23.90
2022-08-11T12:12:31.581Z,23.90
2022-08-11T12:14:59.702Z,23.90
2022-08-11T12:17:27.887Z,23.90
2022-08-11T12:19:57.416Z,23.90
2022-08-11T12:22:42.860Z,23.90
2022-08-11T12:25:28.877Z,23.90
2022-08-11T12:27:57.028Z,23.90
2022-08-11T12:30:25.337Z,23.90
2022-08-11T12:32:53.567Z,23.90
2022-08-11T12:35:23.150Z,24.00
2022-08-11T12:38:02.647Z,24.00
2022-08-11T12:41:14.988Z,24.00
2022-08-11T12:43:57.724Z,24.00
2022-08-11T12:46:27.954Z,24.00
2022-08-11T12:49:15.125Z,24.00
2022-08-11T12:52:12.292Z,24.00
2022-08-11T12:54:57.543Z,24.10
2022-08-11T12:57:46.620Z,24.00
2022-08-11T13:00:32.862Z,24.10
2022-08-11T13:03:18.441Z,24.10
2022-08-11T13:05:47.331Z,24.10
2022-08-11T13:08:16.845Z,24.10
2022-08-11T13:11:02.585Z,24.10
2022-08-11T13:13:54.989Z,24.10
2022-08-11T13:16:20.633Z,24.10
2022-08-11T13:18:48.894Z,24.10
2022-08-11T13:21:20.663Z,24.10
2022-08-11T13:24:01.540Z,24.10
2022-08-11T13:26:47.255Z,24.10
2022-08-11T13:29:19.326Z,24.10
2022-08-11T13:31:47.629Z,24.20
2022-08-11T13:34:16.762Z,24.10
2022-08-11T13:36:45.100Z,24.10
2022-08-11T13:39:14.705Z,24.10
2022-08-11T13:41:44.136Z,24.10
2022-08-11T13:44:21.670Z,24.10
2022-08-11T13:46:53.503Z,24.10
2022-08-11T13:49:22.515Z,24.10
2022-08-11T13:51:50.802Z,24.10
2022-08-11T13:54:22.375Z,24.10
2022-08-11T13:56:54.408Z,24.10
2022-08-11T13:59:29.945Z,24.10
2022-08-11T14:02:22.290Z,24.20
2022-08-11T14:04:54.136Z,24.20
2022-08-11T14:07:23.409Z,24.20
2022-08-11T14:09:56.882Z,24.20
2022-08-11T14:12:43.339Z,24.20
2022-08-11T14:15:13.786Z,24.20
2022-08-11T14:17:48.372Z,24.20
2022-08-11T14:20:39.514Z,24.20
2022-08-11T14:23:05.898Z,24.20
2022-08-11T14:25:59.465Z,24.20
2022-08-11T14:28:33.940Z,24.20
2022-08-11T14:31:05.378Z,24.20
2022-08-11T14:33:58.222Z,24.10
2022-08-11T14:36:22.388Z,24.20
2022-08-11T14:38:50.786Z,24.10
2022-08-11T14:41:37.709Z,24.20
2022-08-11T14:44:43.790Z,24.10
2022-08-11T14:47:23.115Z,24.10
2022-08-11T14:49:58.595Z,24.10
2022-08-11T14:52:40.515Z,24.10
2022-08-11T14:55:27.062Z,24.10
2022-08-11T14:57:57.193Z,24.10
2022-08-11T15:00:25.635Z,24.10
2022-08-11T15:03:11.288Z,24.10
2022-08-11T15:05:56.765Z,24.10
2022-08-11T15:08:48.055Z,24.10
2022-08-11T15:11:34.036Z,24.10
2022-08-11T15:14:04.613Z,24.10
2022-08-11T15:16:50.428Z,24.10
2022-08-11T15:19:21.108Z,24.10
2022-08-11T15:22:07.520Z,24.10
2022-08-11T15:24:36.531Z,24.10
2022-08-11T15:27:23.997Z,24.10
2022-08-11T15:30:10.908Z,24.10
2022-08-11T15:33:06.364Z,24.10
2022-08-11T15:35:52.224Z,24.10
2022-08-11T15:38:20.356Z,24.10
2022-08-11T15:41:05.877Z,24.10
2022-08-11T15:43:57.846Z,24.10
2022-08-11T15:46:30.643Z,24.10
2022-08-11T15:49:00.688Z,24.10
2022-08-11T15:51:31.605Z,24.10
2022-08-11T15:54:00.426Z,24.10
2022-08-11T15:56:30.052Z,24.10
2022-08-11T15:59:42.036Z,24.10
2022-08-11T16:02:23.566Z,24.10
2022-08-11T16:04:51.784Z,24.10
2022-08-11T16:07:26.687Z,24.10
2022-08-11T16:10:00.537Z,24.10
2022-08-11T16:12:31.556Z,24.10
2022-08-11T16:15:27.524Z,24.10
2022-08-11T16:17:58.990Z,24.10
2022-08-11T16:20:28.356Z,24.10
2022-08-11T16:23:02.034Z,24.10
2022-08-11T16:27:03.825Z,24.10
2022-08-11T16:28:20.749Z,24.10
2022-08-11T16:30:48.979Z,24.10
2022-08-11T16:33:48.622Z,24.10
2022-08-11T16:36:25.072Z,24.10
2022-08-11T16:38:53.390Z,24.20
2022-08-11T16:41:42.553Z,24.20
2022-08-11T16:44:36.949Z,24.10
2022-08-11T16:47:06.763Z,24.10
2022-08-11T16:49:37.249Z,24.10
2022-08-11T16:52:08.019Z,24.10
2022-08-11T16:54:36.315Z,24.10
2022-08-11T16:57:20.561Z,24.10
2022-08-11T16:59:49.149Z,24.10
2022-08-11T17:02:40.205Z,24.10
2022-08-11T17:05:29.403Z,24.10
2022-08-11T17:08:15.264Z,24.10
2022-08-11T17:11:04.285Z,24.10
2022-08-11T17:13:35.098Z,24.10
2022-08-11T17:16:11.805Z,24.10
2022-08-11T17:18:46.698Z,24.10
2022-08-11T17:21:19.141Z,24.10
2022-08-11T17:23:50.312Z,24.10
2022-08-11T17:26:23.503Z,24.10
2022-08-11T17:28:54.142Z,24.10
2022-08-11T17:31:39.869Z,24.10
2022-08-11T17:34:25.914Z,24.10
2022-08-11T17:36:55.773Z,24.10
2022-08-11T17:39:29.101Z,24.10
2022-08-11T17:42:15.097Z,24.10
2022-08-11T17:45:00.547Z,24.10
2022-08-11T17:47:45.905Z,24.10
2022-08-11T17:50:16.880Z,24.10
2022-08-11T17:53:05.545Z,24.10
2022-08-11T17:56:06.085Z,24.10
2022-08-11T17:58:51.731Z,24.10
2022-08-11T18:01:19.881Z,24.10
2022-08-11T18:03:57.524Z,24.10
2022-08-11T18:06:33.605Z,24.10
2022-08-11T18:09:22.702Z,24.10
2022-08-11T18:12:11.844Z,24.10
2022-08-11T18:14:58.734Z,24.10
2022-08-11T18:17:44.090Z,24.10
2022-08-11T18:20:29.488Z,24.10
2022-08-11T18:23:15.075Z,24.10
2022-08-11T18:26:03.362Z,24.10
2022-08-11T18:28:57.060Z,24.10
2022-08-11T18:31:50.197Z,24.10
2022-08-11T18:34:35.884Z,24.10
2022-08-11T18:37:27.206Z,24.10
2022-08-11T18:40:17.295Z,24.10
2022-08-11T18:43:05.237Z,24.00
2022-08-11T18:45:56.467Z,24.10
2022-08-11T18:48:53.740Z,24.10
2022-08-11T18:51:40.315Z,24.10
2022-08-11T18:54:27.612Z,24.10
2022-08-11T18:57:13.370Z,24.00
2022-08-11T19:00:01.470Z,24.00
2022-08-11T19:02:49.188Z,24.00
2022-08-11T19:06:35.889Z,24.00
2022-08-11T19:08:42.112Z,24.00
2022-08-11T19:11:28.088Z,24.00
2022-08-11T19:14:14.386Z,24.00
2022-08-11T19:17:01.533Z,24.00
2022-08-11T19:19:47.834Z,24.00
2022-08-11T19:25:25.726Z,24.00
2022-08-11T19:28:13.542Z,23.90
2022-08-11T19:31:08.203Z,24.00
2022-08-11T19:34:10.741Z,24.00
2022-08-11T19:37:07.023Z,24.00
2022-08-11T19:39:55.559Z,24.00
2022-08-11T19:42:43.318Z,24.00
2022-08-11T19:45:30.173Z,24.00
2022-08-11T19:48:31.882Z,24.00
2022-08-11T19:51:44.704Z,24.00
2022-08-11T19:54:37.770Z,24.00
2022-08-11T19:57:39.245Z,24.00
2022-08-11T20:00:31.741Z,24.00
2022-08-11T20:03:18.342Z,24.00
2022-08-11T20:06:23.379Z,24.00
2022-08-11T20:10:06.480Z,24.00
2022-08-11T20:12:55.528Z,24.00
2022-08-11T20:15:42.446Z,24.00
2022-08-11T20:18:31.956Z,24.00
2022-08-11T20:21:25.542Z,23.90
2022-08-11T20:24:38.980Z,24.00
2022-08-11T20:27:31.725Z,24.00
2022-08-11T20:30:23.446Z,24.00
2022-08-11T20:36:20.230Z,24.00
2022-08-11T20:39:16.963Z,24.00
2022-08-11T20:42:11.523Z,23.90
2022-08-11T20:44:59.140Z,23.90
2022-08-11T20:47:59.655Z,24.00
2022-08-11T20:50:48.990Z,23.90
2022-08-11T20:53:39.352Z,24.00
2022-08-11T20:56:28.468Z,23.90
2022-08-11T20:59:18.526Z,24.00
2022-08-11T21:02:05.376Z,24.00
2022-08-11T21:05:03.420Z,24.00
2022-08-11T21:08:01.777Z,24.00
2022-08-11T21:10:53.904Z,24.00
2022-08-11T21:13:46.016Z,23.90
2022-08-11T21:16:47.501Z,23.90
2022-08-11T21:20:00.418Z,23.90
2022-08-11T21:22:59.328Z,24.00
2022-08-11T21:25:53.767Z,24.00
2022-08-11T21:28:40.983Z,24.00
2022-08-11T21:31:27.465Z,24.00
2022-08-11T21:34:13.826Z,23.90
2022-08-11T21:37:00.327Z,24.00
2022-08-11T21:39:48.774Z,23.90
2022-08-11T21:42:35.251Z,23.90
2022-08-11T21:45:21.579Z,24.00
2022-08-11T21:48:07.401Z,23.90
2022-08-11T21:50:53.192Z,23.90
2022-08-11T21:53:39.898Z,23.90
2022-08-11T21:56:27.919Z,23.90
2022-08-11T21:59:15.018Z,23.90
2022-08-11T22:02:03.559Z,23.90
2022-08-11T22:04:50.747Z,23.90
2022-08-11T22:07:40.778Z,23.90
2022-08-11T22:10:41.862Z,23.90
2022-08-11T22:13:37.376Z,23.90
2022-08-11T22:16:24.539Z,23.90
2022-08-11T22:19:14.327Z,23.90
2022-08-11T22:22:04.455Z,23.90
2022-08-11T22:24:54.953Z,23.90
2022-08-11T22:27:43.437Z,23.90
2022-08-11T22:30:33.037Z,23.90
2022-08-11T22:33:25.594Z,23.90
2022-08-11T22:36:13.692Z,23.90
2022-08-11T22:39:00.829Z,23.90
2022-08-11T22:41:50.533Z,23.90
2022-08-11T22:44:36.369Z,23.90
2022-08-11T22:47:24.054Z,23.90
2022-08-11T22:50:15.837Z,23.90
2022-08-11T22:53:01.964Z,23.90
2022-08-11T22:55:48.234Z,23.90
2022-08-11T22:58:34.324Z,23.90
2022-08-11T23:01:21.585Z,23.90
2022-08-11T23:04:09.378Z,23.90
2022-08-11T23:06:56.738Z,23.90
2022-08-11T23:09:43.111Z,23.90
2022-08-11T23:12:29.797Z,23.90
2022-08-11T23:15:17.295Z,23.90
2022-08-11T23:18:03.540Z,23.90
2022-08-11T23:20:50.833Z,23.90
2022-08-11T23:23:40.169Z,23.90
2022-08-11T23:26:26.669Z,23.90
2022-08-11T23:29:16.173Z,23.90
2022-08-11T23:32:03.460Z,23.90
2022-08-11T23:35:04.643Z,23.90
2022-08-11T23:38:04.736Z,23.90
2022-08-11T23:40:53.507Z,23.90
2022-08-11T23:43:39.838Z,23.90
2022-08-11T23:46:25.997Z,23.90
2022-08-11T23:49:15.029Z,23.90
2022-08-11T23:52:01.033Z,23.90
2022-08-11T23:54:48.440Z,23.90
2022-08-11T23:57:34.149Z,23.90
